createdAt,value
2022-08-03T00:02:53.026Z,4.97
2022-08-03T00:06:54.769Z,6.15
2022-08-03T00:10:56.351Z,6.72
2022-08-03T00:14:57.870Z,5.03
2022-08-03T00:19:00.800Z,5.22
2022-08-03T00:23:02.567Z,6.00
2022-08-03T00:27:04.215Z,5.70
2022-08-03T00:31:05.812Z,7.43
2022-08-03T00:35:10.549Z,6.28
2022-08-03T00:39:15.122Z,5.72
2022-08-03T00:43:16.765Z,5.90
2022-08-03T00:47:18.268Z,4.95
2022-08-03T00:51:20.548Z,7.15
2022-08-03T00:55:22.536Z,4.95
2022-08-03T00:59:24.025Z,4.72
2022-08-03T01:03:25.685Z,5.88
2022-08-03T01:07:27.157Z,6.60
2022-08-03T01:12:00.682Z,5.07
2022-08-03T01:16:25.830Z,5.53
2022-08-03T01:20:41.165Z,4.88
2022-08-03T01:25:03.988Z,5.05
2022-08-03T01:29:57.139Z,7.03
2022-08-03T01:34:03.981Z,4.93
2022-08-03T01:38:22.781Z,6.25
2022-08-03T01:42:25.615Z,7.07
2022-08-03T01:46:28.010Z,5.07
2022-08-03T01:50:30.999Z,10.73
2022-08-03T01:54:37.863Z,6.38
2022-08-03T01:58:41.039Z,5.07
2022-08-03T02:02:43.810Z,4.95
2022-08-03T02:07:00.623Z,6.35
2022-08-03T02:11:04.632Z,7.47
2022-08-03T02:15:07.471Z,5.75
2022-08-03T02:19:10.904Z,6.88
2022-08-03T02:23:12.613Z,5.47
2022-08-03T02:27:20.426Z,6.75
2022-08-03T02:31:24.817Z,5.30
2022-08-03T02:35:27.438Z,4.93
2022-08-03T02:39:31.619Z,5.63
2022-08-03T02:43:39.163Z,6.22
2022-08-03T02:47:58.681Z,4.85
2022-08-03T02:52:00.609Z,4.75
2022-08-03T02:56:02.962Z,5.30
2022-08-03T03:00:05.883Z,5.63
2022-08-03T03:04:07.820Z,4.65
2022-08-03T03:08:17.685Z,7.68
2022-08-03T03:12:21.437Z,6.80
2022-08-03T03:16:23.143Z,4.75
2022-08-03T03:20:29.096Z,8.00
2022-08-03T03:24:31.722Z,6.72
2022-08-03T03:28:33.852Z,6.57
2022-08-03T03:32:36.990Z,6.55
2022-08-03T03:36:38.603Z,4.95
2022-08-03T03:40:40.277Z,6.75
2022-08-03T03:44:41.810Z,6.88
2022-08-03T03:48:44.365Z,6.32
2022-08-03T03:52:46.122Z,5.55
2022-08-03T03:56:47.985Z,6.00
2022-08-03T04:00:49.876Z,7.75
2022-08-03T04:05:10.113Z,7.45
2022-08-03T04:09:30.341Z,6.72
2022-08-03T04:13:37.194Z,7.28
2022-08-03T04:17:39.291Z,7.22
2022-08-03T04:21:43.798Z,5.78
2022-08-03T04:25:46.414Z,5.97
2022-08-03T04:29:49.649Z,9.25
2022-08-03T04:33:52.211Z,7.57
2022-08-03T04:37:55.311Z,6.90
2022-08-03T04:42:07.050Z,6.03
2022-08-03T04:46:10.442Z,9.45
2022-08-03T04:50:15.038Z,8.07
2022-08-03T04:54:18.545Z,6.78
2022-08-03T04:58:20.025Z,7.53
2022-08-03T05:02:21.568Z,9.13
2022-08-03T05:06:25.140Z,7.53
2022-08-03T05:10:26.928Z,7.13
2022-08-03T05:14:28.510Z,6.45
2022-08-03T05:18:30.024Z,6.40
2022-08-03T05:22:31.585Z,6.93
2022-08-03T05:26:33.115Z,8.10
2022-08-03T05:30:34.810Z,7.70
2022-08-03T05:34:36.426Z,8.20
2022-08-03T05:38:38.089Z,8.60
2022-08-03T05:42:39.876Z,9.35
2022-08-03T05:46:41.429Z,9.13
2022-08-03T05:50:43.040Z,10.05
2022-08-03T05:54:55.468Z,6.97
2022-08-03T05:59:11.373Z,7.43
2022-08-03T06:03:21.207Z,6.25
2022-08-03T06:07:57.194Z,9.98
2022-08-03T06:11:58.761Z,8.40
2022-08-03T06:16:00.328Z,4.32
2022-08-03T06:20:01.793Z,5.50
2022-08-03T06:24:03.876Z,5.45
2022-08-03T06:28:14.960Z,4.68
2022-08-03T06:32:26.060Z,4.43
2022-08-03T06:36:31.597Z,4.50
2022-08-03T06:40:39.799Z,4.88
2022-08-03T06:44:41.591Z,3.20
2022-08-03T06:48:43.133Z,5.00
2022-08-03T06:52:44.687Z,4.25
2022-08-03T06:56:49.389Z,3.95
2022-08-03T07:00:54.225Z,4.35
2022-08-03T07:04:55.838Z,4.18
2022-08-03T07:08:59.644Z,4.90
2022-08-03T07:13:01.354Z,4.60
2022-08-03T07:17:04.507Z,4.10
2022-08-03T07:21:13.063Z,6.60
2022-08-03T07:25:14.995Z,5.47
2022-08-03T07:29:16.685Z,5.53
2022-08-03T07:33:18.424Z,4.43
2022-08-03T07:37:20.115Z,5.18
2022-08-03T07:41:21.789Z,6.93
2022-08-03T07:45:25.848Z,3.28
2022-08-03T07:49:27.637Z,3.38
2022-08-03T07:53:29.325Z,2.17
2022-08-03T07:57:31.088Z,3.05
2022-08-03T08:01:35.948Z,2.70
2022-08-03T08:05:37.787Z,3.72
2022-08-03T08:09:39.558Z,4.68
2022-08-03T08:13:41.172Z,3.20
2022-08-03T08:17:56.847Z,2.88
2022-08-03T08:22:02.399Z,2.90
2022-08-03T08:26:04.684Z,3.17
2022-08-03T08:31:21.679Z,2.30
2022-08-03T08:36:39.162Z,2.85
2022-08-03T08:40:46.634Z,2.08
2022-08-03T08:44:50.984Z,4.63
2022-08-03T08:48:54.517Z,3.92
2022-08-03T08:52:56.762Z,3.42
2022-08-03T08:57:02.540Z,3.40
2022-08-03T09:01:09.442Z,2.33
2022-08-03T09:05:14.344Z,3.03
2022-08-03T09:09:28.465Z,1.80
2022-08-03T09:13:37.306Z,4.28
2022-08-03T09:17:40.893Z,3.95
2022-08-03T09:21:42.409Z,2.10
2022-08-03T09:25:46.074Z,2.88
2022-08-03T09:29:49.747Z,2.67
2022-08-03T09:33:51.324Z,3.15
2022-08-03T09:38:14.129Z,5.60
2022-08-03T09:42:23.854Z,2.92
2022-08-03T09:46:25.912Z,1.92
2022-08-03T09:50:27.632Z,1.60
2022-08-03T09:54:30.779Z,1.65
2022-08-03T09:58:32.340Z,2.15
2022-08-03T10:02:33.816Z,3.33
2022-08-03T10:06:35.409Z,3.33
2022-08-03T10:10:46.343Z,2.92
2022-08-03T10:14:48.190Z,2.33
2022-08-03T10:18:49.734Z,3.75
2022-08-03T10:22:52.168Z,7.13
2022-08-03T10:27:01.983Z,3.30
2022-08-03T10:31:05.460Z,2.58
2022-08-03T10:35:20.428Z,8.18
2022-08-03T10:39:24.745Z,3.88
2022-08-03T10:43:30.907Z,2.63
2022-08-03T10:47:33.573Z,3.77
2022-08-03T10:51:35.238Z,4.28
2022-08-03T10:56:03.954Z,3.40
2022-08-03T11:00:08.314Z,6.47
2022-08-03T11:04:17.837Z,4.03
2022-08-03T11:08:20.041Z,4.47
2022-08-03T11:12:31.413Z,4.40
2022-08-03T11:16:36.464Z,2.50
2022-08-03T11:20:52.282Z,2.15
2022-08-03T11:24:57.682Z,2.05
2022-08-03T11:29:27.480Z,2.42
2022-08-03T11:33:30.661Z,2.05
2022-08-03T11:37:33.449Z,2.03
2022-08-03T11:41:45.109Z,3.83
2022-08-03T11:46:00.621Z,2.55
2022-08-03T11:50:02.336Z,2.15
2022-08-03T11:54:06.314Z,2.30
2022-08-03T11:59:10.624Z,2.22
2022-08-03T12:02:29.302Z,3.63
2022-08-03T12:06:30.889Z,3.22
2022-08-03T12:10:32.790Z,1.60
2022-08-03T12:14:48.492Z,3.40
2022-08-03T12:19:02.426Z,2.88
2022-08-03T12:23:08.355Z,3.35
2022-08-03T12:27:10.058Z,4.38
2022-08-03T12:31:11.921Z,2.65
2022-08-03T12:35:31.890Z,3.03
2022-08-03T12:39:33.597Z,3.25
2022-08-03T12:43:36.593Z,5.13
2022-08-03T12:47:52.104Z,2.43
2022-08-03T12:51:53.796Z,3.25
2022-08-03T12:56:05.635Z,3.63
2022-08-03T13:00:21.730Z,3.70
2022-08-03T13:04:33.697Z,3.17
2022-08-03T13:08:35.340Z,5.25
2022-08-03T13:12:50.050Z,3.55
2022-08-03T13:16:51.557Z,3.15
2022-08-03T13:20:53.137Z,3.55
2022-08-03T13:24:56.604Z,2.05
2022-08-03T13:28:58.191Z,2.03
2022-08-03T13:33:00.513Z,5.13
2022-08-03T13:37:10.058Z,4.55
2022-08-03T13:41:15.488Z,2.15
2022-08-03T13:45:18.009Z,2.83
2022-08-03T13:49:19.668Z,4.10
2022-08-03T13:53:21.399Z,2.58
2022-08-03T13:58:03.179Z,3.30
2022-08-03T14:01:55.093Z,2.58
2022-08-03T14:05:57.614Z,2.17
2022-08-03T14:09:59.195Z,1.52
2022-08-03T14:14:00.729Z,3.58
2022-08-03T14:18:02.374Z,4.78
2022-08-03T14:22:06.742Z,3.55
2022-08-03T14:26:09.219Z,3.85
2022-08-03T14:30:11.524Z,5.85
2022-08-03T14:34:14.203Z,3.03
2022-08-03T14:38:16.233Z,3.30
2022-08-03T14:42:17.894Z,1.83
2022-08-03T14:46:19.415Z,3.30
2022-08-03T14:50:37.960Z,3.00
2022-08-03T14:54:43.161Z,3.65
2022-08-03T14:58:44.714Z,2.38
2022-08-03T15:02:46.302Z,3.08
2022-08-03T15:06:48.560Z,2.28
2022-08-03T15:10:57.686Z,2.65
2022-08-03T15:14:59.332Z,3.88
2022-08-03T15:19:01.120Z,2.28
2022-08-03T15:23:02.717Z,1.67
2022-08-03T15:27:06.365Z,2.63
2022-08-03T15:31:08.032Z,2.10
2022-08-03T15:35:09.585Z,3.47
2022-08-03T15:39:11.059Z,2.33
2022-08-03T15:43:12.594Z,3.72
2022-08-03T15:47:14.128Z,5.13
2022-08-03T15:51:15.760Z,1.85
2022-08-03T15:55:17.261Z,3.88
2022-08-03T15:59:19.895Z,1.73
2022-08-03T16:03:21.651Z,2.80
2022-08-03T16:08:02.654Z,2.60
2022-08-03T16:12:04.595Z,3.67
2022-08-03T16:16:06.166Z,2.95
2022-08-03T16:20:10.585Z,3.33
2022-08-03T16:24:31.040Z,2.30
2022-08-03T16:28:34.641Z,3.17
2022-08-03T16:32:38.277Z,2.80
2022-08-03T16:36:39.894Z,3.88
2022-08-03T16:40:41.404Z,1.90
2022-08-03T16:44:43.074Z,2.58
2022-08-03T16:48:44.635Z,1.70
2022-08-03T16:52:47.457Z,3.08
2022-08-03T16:56:49.887Z,4.93
2022-08-03T17:00:51.636Z,2.42
2022-08-03T17:09:19.052Z,3.90
2022-08-03T17:13:22.958Z,3.55
2022-08-03T17:17:47.710Z,8.20
2022-08-03T17:22:04.289Z,5.38
2022-08-03T17:26:13.689Z,3.72
2022-08-03T17:30:22.060Z,3.22
2022-08-03T17:34:27.002Z,2.67
2022-08-03T17:38:28.961Z,2.08
2022-08-03T17:42:36.462Z,4.07
2022-08-03T17:46:38.349Z,3.22
2022-08-03T17:50:48.341Z,3.50
2022-08-03T17:55:55.442Z,3.47
2022-08-03T18:00:33.947Z,3.45
2022-08-03T18:04:42.434Z,2.42
2022-08-03T18:08:51.060Z,4.13
2022-08-03T18:13:00.245Z,3.15
2022-08-03T18:17:10.521Z,3.90
2022-08-03T18:21:16.664Z,2.95
2022-08-03T18:25:42.342Z,3.13
2022-08-03T18:29:59.834Z,5.07
2022-08-03T18:34:32.241Z,5.20
2022-08-03T18:38:25.985Z,2.58
2022-08-03T18:42:27.770Z,4.25
2022-08-03T18:47:15.817Z,2.63
2022-08-03T18:51:33.756Z,2.95
2022-08-03T19:06:22.321Z,4.55
2022-08-03T19:37:39.678Z,8.73
2022-08-03T19:42:34.217Z,5.22
2022-08-03T19:52:47.105Z,7.43
2022-08-03T20:30:48.830Z,5.55
2022-08-03T20:36:00.956Z,3.35
2022-08-03T20:40:15.118Z,3.20
2022-08-03T21:00:39.864Z,4.70
2022-08-03T21:10:24.723Z,3.08
2022-08-03T21:30:21.006Z,6.70
2022-08-03T21:45:17.440Z,4.85
2022-08-03T21:50:30.168Z,7.15
2022-08-03T21:55:06.332Z,4.07
2022-08-03T22:28:03.145Z,3.50
2022-08-03T22:37:45.311Z,5.43
2022-08-03T22:47:27.045Z,4.95
2022-08-03T23:01:10.547Z,3.92
2022-08-03T23:10:06.817Z,3.37
2022-08-03T23:14:46.214Z,3.60
2022-08-03T23:19:25.676Z,4.35
2022-08-03T23:33:06.826Z,3.50
2022-08-03T23:38:22.189Z,3.22
2022-08-03T23:42:48.187Z,4.38
